sensor_id;sensor_type;location;lat;lon;timestamp;P1;durP1;ratioP1;P2;durP2;ratioP2
37355;SDS011;48747;50.250;18.848;2023-06-24T00:00:22;2.70;;;2.22;;
37355;SDS011;48747;50.250;18.848;2023-06-24T00:02:26;2.58;;;2.10;;
37355;SDS011;48747;50.250;18.848;2023-06-24T00:04:32;3.10;;;2.30;;
37355;SDS011;48747;50.250;18.848;2023-06-24T00:06:34;2.50;;;2.00;;
37355;SDS011;48747;50.250;18.848;2023-06-24T00:08:40;3.60;;;2.50;;
37355;SDS011;48747;50.250;18.848;2023-06-24T00:10:44;2.85;;;2.10;;
37355;SDS011;48747;50.250;18.848;2023-06-24T00:12:48;2.90;;;2.33;;
37355;SDS011;48747;50.250;18.848;2023-06-24T00:14:51;2.58;;;2.05;;
37355;SDS011;48747;50.250;18.848;2023-06-24T00:16:56;3.00;;;2.47;;
37355;SDS011;48747;50.250;18.848;2023-06-24T00:19:00;2.77;;;2.35;;
37355;SDS011;48747;50.250;18.848;2023-06-24T00:21:10;2.85;;;2.22;;
37355;SDS011;48747;50.250;18.848;2023-06-24T00:23:12;3.77;;;2.42;;
37355;SDS011;48747;50.250;18.848;2023-06-24T00:25:17;2.85;;;2.20;;
37355;SDS011;48747;50.250;18.848;2023-06-24T00:27:22;2.72;;;2.30;;
37355;SDS011;48747;50.250;18.848;2023-06-24T00:29:31;2.50;;;2.10;;
37355;SDS011;48747;50.250;18.848;2023-06-24T00:31:30;3.75;;;2.55;;
37355;SDS011;48747;50.250;18.848;2023-06-24T00:33:33;3.85;;;2.30;;
37355;SDS011;48747;50.250;18.848;2023-06-24T00:35:41;4.15;;;2.12;;
37355;SDS011;48747;50.250;18.848;2023-06-24T00:37:44;3.60;;;2.47;;
37355;SDS011;48747;50.250;18.848;2023-06-24T00:39:49;3.00;;;2.02;;
37355;SDS011;48747;50.250;18.848;2023-06-24T00:41:52;4.65;;;2.25;;
37355;SDS011;48747;50.250;18.848;2023-06-24T00:43:56;3.98;;;2.47;;
37355;SDS011;48747;50.250;18.848;2023-06-24T00:46:01;3.05;;;2.50;;
37355;SDS011;48747;50.250;18.848;2023-06-24T00:48:07;3.22;;;2.27;;
37355;SDS011;48747;50.250;18.848;2023-06-24T00:50:12;6.95;;;2.80;;
37355;SDS011;48747;50.250;18.848;2023-06-24T00:52:18;3.80;;;2.17;;
37355;SDS011;48747;50.250;18.848;2023-06-24T00:54:21;2.58;;;2.37;;
37355;SDS011;48747;50.250;18.848;2023-06-24T00:56:27;8.98;;;2.45;;
37355;SDS011;48747;50.250;18.848;2023-06-24T00:58:36;5.03;;;2.40;;
37355;SDS011;48747;50.250;18.848;2023-06-24T01:00:43;3.55;;;2.37;;
37355;SDS011;48747;50.250;18.848;2023-06-24T01:02:49;3.42;;;2.42;;
37355;SDS011;48747;50.250;18.848;2023-06-24T01:04:54;4.50;;;2.67;;
37355;SDS011;48747;50.250;18.848;2023-06-24T01:06:58;3.08;;;2.45;;
37355;SDS011;48747;50.250;18.848;2023-06-24T01:09:01;3.27;;;2.37;;
37355;SDS011;48747;50.250;18.848;2023-06-24T01:11:06;3.90;;;2.52;;
37355;SDS011;48747;50.250;18.848;2023-06-24T01:13:12;3.52;;;2.35;;
37355;SDS011;48747;50.250;18.848;2023-06-24T01:15:15;2.37;;;2.17;;
37355;SDS011;48747;50.250;18.848;2023-06-24T01:19:37;3.77;;;2.30;;
37355;SDS011;48747;50.250;18.848;2023-06-24T01:22:04;4.10;;;2.45;;
37355;SDS011;48747;50.250;18.848;2023-06-24T01:24:25;3.37;;;2.37;;
37355;SDS011;48747;50.250;18.848;2023-06-24T01:31:58;3.33;;;2.22;;
37355;SDS011;48747;50.250;18.848;2023-06-24T01:34:06;5.17;;;3.08;;
37355;SDS011;48747;50.250;18.848;2023-06-24T01:36:08;4.28;;;2.40;;
37355;SDS011;48747;50.250;18.848;2023-06-24T01:38:21;3.37;;;2.83;;
37355;SDS011;48747;50.250;18.848;2023-06-24T01:40:43;3.17;;;2.52;;
37355;SDS011;48747;50.250;18.848;2023-06-24T01:42:47;3.27;;;2.10;;
37355;SDS011;48747;50.250;18.848;2023-06-24T01:47:00;3.37;;;2.72;;
37355;SDS011;48747;50.250;18.848;2023-06-24T01:49:11;4.97;;;2.52;;
37355;SDS011;48747;50.250;18.848;2023-06-24T01:51:12;4.78;;;2.60;;
37355;SDS011;48747;50.250;18.848;2023-06-24T01:53:18;6.55;;;3.12;;
37355;SDS011;48747;50.250;18.848;2023-06-24T01:55:24;5.08;;;2.70;;
37355;SDS011;48747;50.250;18.848;2023-06-24T01:57:36;4.83;;;2.80;;
37355;SDS011;48747;50.250;18.848;2023-06-24T01:59:44;3.98;;;2.83;;
37355;SDS011;48747;50.250;18.848;2023-06-24T02:01:48;4.33;;;2.90;;
37355;SDS011;48747;50.250;18.848;2023-06-24T02:03:53;4.62;;;2.90;;
37355;SDS011;48747;50.250;18.848;2023-06-24T02:06:00;4.35;;;2.90;;
37355;SDS011;48747;50.250;18.848;2023-06-24T02:08:11;4.72;;;2.95;;
37355;SDS011;48747;50.250;18.848;2023-06-24T02:10:11;5.05;;;2.60;;
37355;SDS011;48747;50.250;18.848;2023-06-24T02:12:16;4.37;;;3.05;;
37355;SDS011;48747;50.250;18.848;2023-06-24T02:14:21;5.20;;;3.20;;
37355;SDS011;48747;50.250;18.848;2023-06-24T02:16:27;4.00;;;3.20;;
37355;SDS011;48747;50.250;18.848;2023-06-24T02:18:34;5.47;;;2.90;;
37355;SDS011;48747;50.250;18.848;2023-06-24T02:20:37;3.87;;;2.90;;
37355;SDS011;48747;50.250;18.848;2023-06-24T02:22:45;5.97;;;2.98;;
37355;SDS011;48747;50.250;18.848;2023-06-24T02:24:48;5.12;;;3.42;;
37355;SDS011;48747;50.250;18.848;2023-06-24T02:26:53;4.67;;;2.98;;
37355;SDS011;48747;50.250;18.848;2023-06-24T02:29:02;4.33;;;3.10;;
37355;SDS011;48747;50.250;18.848;2023-06-24T02:31:04;4.45;;;2.85;;
37355;SDS011;48747;50.250;18.848;2023-06-24T02:33:10;6.03;;;3.02;;
37355;SDS011;48747;50.250;18.848;2023-06-24T02:35:14;4.15;;;3.30;;
37355;SDS011;48747;50.250;18.848;2023-06-24T02:37:22;6.90;;;3.58;;
37355;SDS011;48747;50.250;18.848;2023-06-24T02:39:28;5.90;;;3.30;;
37355;SDS011;48747;50.250;18.848;2023-06-24T02:41:34;6.40;;;3.47;;
37355;SDS011;48747;50.250;18.848;2023-06-24T02:43:38;5.28;;;3.50;;
37355;SDS011;48747;50.250;18.848;2023-06-24T02:45:42;5.47;;;3.60;;
37355;SDS011;48747;50.250;18.848;2023-06-24T02:47:51;5.62;;;3.33;;
37355;SDS011;48747;50.250;18.848;2023-06-24T02:49:56;5.15;;;3.70;;
37355;SDS011;48747;50.250;18.848;2023-06-24T02:52:01;7.87;;;3.65;;
37355;SDS011;48747;50.250;18.848;2023-06-24T02:54:06;9.18;;;4.17;;
37355;SDS011;48747;50.250;18.848;2023-06-24T02:56:11;7.85;;;4.05;;
37355;SDS011;48747;50.250;18.848;2023-06-24T02:58:15;8.83;;;4.10;;
37355;SDS011;48747;50.250;18.848;2023-06-24T03:00:33;7.30;;;4.00;;
37355;SDS011;48747;50.250;18.848;2023-06-24T03:02:25;6.92;;;4.42;;
37355;SDS011;48747;50.250;18.848;2023-06-24T03:04:28;7.53;;;4.20;;
37355;SDS011;48747;50.250;18.848;2023-06-24T03:06:34;7.03;;;4.30;;
37355;SDS011;48747;50.250;18.848;2023-06-24T03:08:40;7.78;;;4.58;;
37355;SDS011;48747;50.250;18.848;2023-06-24T03:10:44;9.28;;;4.72;;
37355;SDS011;48747;50.250;18.848;2023-06-24T03:12:48;6.17;;;4.60;;
37355;SDS011;48747;50.250;18.848;2023-06-24T03:14:53;7.47;;;4.78;;
37355;SDS011;48747;50.250;18.848;2023-06-24T03:16:56;10.85;;;5.55;;
37355;SDS011;48747;50.250;18.848;2023-06-24T03:19:01;6.28;;;5.25;;
37355;SDS011;48747;50.250;18.848;2023-06-24T03:21:04;8.05;;;5.08;;
37355;SDS011;48747;50.250;18.848;2023-06-24T03:23:07;8.83;;;6.03;;
37355;SDS011;48747;50.250;18.848;2023-06-24T03:25:11;11.00;;;5.97;;
37355;SDS011;48747;50.250;18.848;2023-06-24T03:27:24;8.90;;;5.87;;
37355;SDS011;48747;50.250;18.848;2023-06-24T03:29:20;9.95;;;6.67;;
37355;SDS011;48747;50.250;18.848;2023-06-24T03:31:28;9.45;;;5.75;;
37355;SDS011;48747;50.250;18.848;2023-06-24T03:33:37;13.88;;;6.65;;
37355;SDS011;48747;50.250;18.848;2023-06-24T03:35:37;11.33;;;6.10;;
37355;SDS011;48747;50.250;18.848;2023-06-24T03:37:43;17.23;;;7.72;;
37355;SDS011;48747;50.250;18.848;2023-06-24T03:39:50;10.93;;;7.35;;
37355;SDS011;48747;50.250;18.848;2023-06-24T03:41:54;14.55;;;7.62;;
37355;SDS011;48747;50.250;18.848;2023-06-24T03:44:01;10.05;;;6.87;;
37355;SDS011;48747;50.250;18.848;2023-06-24T03:46:04;11.20;;;7.20;;
37355;SDS011;48747;50.250;18.848;2023-06-24T03:48:10;10.35;;;7.42;;
37355;SDS011;48747;50.250;18.848;2023-06-24T03:50:13;26.25;;;8.10;;
37355;SDS011;48747;50.250;18.848;2023-06-24T03:52:17;12.05;;;7.12;;
37355;SDS011;48747;50.250;18.848;2023-06-24T03:54:20;12.35;;;7.42;;
37355;SDS011;48747;50.250;18.848;2023-06-24T03:56:25;13.78;;;7.72;;
37355;SDS011;48747;50.250;18.848;2023-06-24T03:58:29;11.50;;;7.87;;
37355;SDS011;48747;50.250;18.848;2023-06-24T04:00:38;14.38;;;8.10;;
37355;SDS011;48747;50.250;18.848;2023-06-24T04:02:49;11.88;;;7.92;;
37355;SDS011;48747;50.250;18.848;2023-06-24T04:04:55;17.07;;;11.28;;
37355;SDS011;48747;50.250;18.848;2023-06-24T04:06:57;18.50;;;11.30;;
37355;SDS011;48747;50.250;18.848;2023-06-24T04:09:01;32.73;;;18.00;;
37355;SDS011;48747;50.250;18.848;2023-06-24T04:11:11;27.77;;;16.17;;
37355;SDS011;48747;50.250;18.848;2023-06-24T04:13:13;30.40;;;16.77;;
37355;SDS011;48747;50.250;18.848;2023-06-24T04:15:16;32.63;;;17.70;;
37355;SDS011;48747;50.250;18.848;2023-06-24T04:17:27;31.60;;;16.70;;
37355;SDS011;48747;50.250;18.848;2023-06-24T04:19:30;29.32;;;17.00;;
37355;SDS011;48747;50.250;18.848;2023-06-24T04:21:35;25.60;;;16.42;;
37355;SDS011;48747;50.250;18.848;2023-06-24T04:23:38;26.77;;;16.67;;
37355;SDS011;48747;50.250;18.848;2023-06-24T04:25:43;28.07;;;16.10;;
37355;SDS011;48747;50.250;18.848;2023-06-24T04:27:48;27.77;;;17.50;;
37355;SDS011;48747;50.250;18.848;2023-06-24T04:29:54;30.30;;;19.92;;
37355;SDS011;48747;50.250;18.848;2023-06-24T04:31:57;31.15;;;19.73;;
37355;SDS011;48747;50.250;18.848;2023-06-24T04:34:00;29.85;;;20.82;;
37355;SDS011;48747;50.250;18.848;2023-06-24T04:36:05;32.60;;;21.73;;
37355;SDS011;48747;50.250;18.848;2023-06-24T04:38:11;37.08;;;22.82;;
37355;SDS011;48747;50.250;18.848;2023-06-24T04:40:18;38.25;;;24.12;;
37355;SDS011;48747;50.250;18.848;2023-06-24T04:42:20;35.25;;;23.83;;
37355;SDS011;48747;50.250;18.848;2023-06-24T04:44:24;39.60;;;24.43;;
37355;SDS011;48747;50.250;18.848;2023-06-24T04:46:29;36.10;;;24.18;;
37355;SDS011;48747;50.250;18.848;2023-06-24T04:48:34;35.48;;;23.05;;
37355;SDS011;48747;50.250;18.848;2023-06-24T04:50:41;32.95;;;22.75;;
37355;SDS011;48747;50.250;18.848;2023-06-24T04:52:44;34.18;;;22.40;;
37355;SDS011;48747;50.250;18.848;2023-06-24T04:54:54;33.33;;;22.82;;
37355;SDS011;48747;50.250;18.848;2023-06-24T04:56:54;32.93;;;21.80;;
37355;SDS011;48747;50.250;18.848;2023-06-24T04:58:59;30.35;;;20.32;;
37355;SDS011;48747;50.250;18.848;2023-06-24T05:01:02;30.75;;;20.57;;
37355;SDS011;48747;50.250;18.848;2023-06-24T05:03:07;33.67;;;20.95;;
37355;SDS011;48747;50.250;18.848;2023-06-24T05:05:11;31.42;;;21.15;;
37355;SDS011;48747;50.250;18.848;2023-06-24T05:07:16;28.67;;;19.82;;
37355;SDS011;48747;50.250;18.848;2023-06-24T05:09:22;31.33;;;20.97;;
37355;SDS011;48747;50.250;18.848;2023-06-24T05:11:27;31.23;;;21.12;;
37355;SDS011;48747;50.250;18.848;2023-06-24T05:13:36;31.68;;;22.85;;
37355;SDS011;48747;50.250;18.848;2023-06-24T05:15:40;35.08;;;22.62;;
37355;SDS011;48747;50.250;18.848;2023-06-24T05:17:42;34.13;;;22.07;;
37355;SDS011;48747;50.250;18.848;2023-06-24T05:19:47;32.10;;;22.07;;
37355;SDS011;48747;50.250;18.848;2023-06-24T05:21:50;28.40;;;20.25;;
37355;SDS011;48747;50.250;18.848;2023-06-24T05:23:54;30.35;;;21.15;;
37355;SDS011;48747;50.250;18.848;2023-06-24T05:25:57;32.53;;;20.27;;
37355;SDS011;48747;50.250;18.848;2023-06-24T05:28:00;28.70;;;18.65;;
37355;SDS011;48747;50.250;18.848;2023-06-24T05:30:04;24.55;;;18.77;;
37355;SDS011;48747;50.250;18.848;2023-06-24T05:32:07;26.85;;;17.45;;
37355;SDS011;48747;50.250;18.848;2023-06-24T05:34:10;24.47;;;17.60;;
37355;SDS011;48747;50.250;18.848;2023-06-24T05:36:14;27.32;;;14.55;;
37355;SDS011;48747;50.250;18.848;2023-06-24T05:38:17;23.90;;;15.15;;
37355;SDS011;48747;50.250;18.848;2023-06-24T05:40:20;21.10;;;12.73;;
37355;SDS011;48747;50.250;18.848;2023-06-24T05:42:23;18.27;;;12.50;;
37355;SDS011;48747;50.250;18.848;2023-06-24T05:44:29;16.42;;;12.85;;
37355;SDS011;48747;50.250;18.848;2023-06-24T05:46:32;17.10;;;11.33;;
37355;SDS011;48747;50.250;18.848;2023-06-24T05:48:37;16.75;;;12.15;;
37355;SDS011;48747;50.250;18.848;2023-06-24T05:50:45;15.20;;;12.03;;
37355;SDS011;48747;50.250;18.848;2023-06-24T05:52:49;19.10;;;11.95;;
37355;SDS011;48747;50.250;18.848;2023-06-24T05:54:57;16.52;;;11.38;;
37355;SDS011;48747;50.250;18.848;2023-06-24T05:57:01;16.10;;;11.03;;
37355;SDS011;48747;50.250;18.848;2023-06-24T05:59:06;17.27;;;11.70;;
37355;SDS011;48747;50.250;18.848;2023-06-24T06:01:12;15.78;;;10.95;;
37355;SDS011;48747;50.250;18.848;2023-06-24T06:03:16;16.57;;;10.60;;
37355;SDS011;48747;50.250;18.848;2023-06-24T06:05:19;16.37;;;10.93;;
37355;SDS011;48747;50.250;18.848;2023-06-24T06:07:26;14.03;;;11.00;;
37355;SDS011;48747;50.250;18.848;2023-06-24T06:09:32;14.65;;;10.82;;
37355;SDS011;48747;50.250;18.848;2023-06-24T06:11:38;13.53;;;10.45;;
37355;SDS011;48747;50.250;18.848;2023-06-24T06:13:45;17.65;;;10.78;;
37355;SDS011;48747;50.250;18.848;2023-06-24T06:15:53;14.78;;;10.30;;
37355;SDS011;48747;50.250;18.848;2023-06-24T06:17:58;16.02;;;10.40;;
37355;SDS011;48747;50.250;18.848;2023-06-24T06:20:03;17.12;;;10.50;;
37355;SDS011;48747;50.250;18.848;2023-06-24T06:22:16;15.45;;;11.33;;
37355;SDS011;48747;50.250;18.848;2023-06-24T06:24:22;16.20;;;10.75;;
37355;SDS011;48747;50.250;18.848;2023-06-24T06:26:37;14.68;;;11.95;;
37355;SDS011;48747;50.250;18.848;2023-06-24T06:28:40;21.85;;;14.40;;
37355;SDS011;48747;50.250;18.848;2023-06-24T06:30:49;19.05;;;12.23;;
37355;SDS011;48747;50.250;18.848;2023-06-24T06:32:51;14.07;;;11.38;;
37355;SDS011;48747;50.250;18.848;2023-06-24T06:35:05;18.25;;;12.58;;
37355;SDS011;48747;50.250;18.848;2023-06-24T06:37:10;17.90;;;10.08;;
37355;SDS011;48747;50.250;18.848;2023-06-24T06:39:20;13.43;;;9.38;;
37355;SDS011;48747;50.250;18.848;2023-06-24T06:41:28;15.40;;;9.08;;
37355;SDS011;48747;50.250;18.848;2023-06-24T06:43:32;12.93;;;8.13;;
37355;SDS011;48747;50.250;18.848;2023-06-24T06:45:36;14.30;;;8.13;;
37355;SDS011;48747;50.250;18.848;2023-06-24T06:47:48;12.00;;;8.35;;
37355;SDS011;48747;50.250;18.848;2023-06-24T06:49:49;10.95;;;8.13;;
37355;SDS011;48747;50.250;18.848;2023-06-24T06:51:56;13.18;;;8.50;;
37355;SDS011;48747;50.250;18.848;2023-06-24T06:54:02;13.55;;;7.80;;
37355;SDS011;48747;50.250;18.848;2023-06-24T06:56:07;11.53;;;7.90;;
37355;SDS011;48747;50.250;18.848;2023-06-24T06:58:12;11.43;;;7.53;;
37355;SDS011;48747;50.250;18.848;2023-06-24T07:00:19;10.88;;;7.83;;
37355;SDS011;48747;50.250;18.848;2023-06-24T07:02:22;12.88;;;8.65;;
37355;SDS011;48747;50.250;18.848;2023-06-24T07:04:24;10.58;;;8.03;;
37355;SDS011;48747;50.250;18.848;2023-06-24T07:06:30;14.10;;;8.08;;
37355;SDS011;48747;50.250;18.848;2023-06-24T07:08:35;11.70;;;7.75;;
37355;SDS011;48747;50.250;18.848;2023-06-24T07:10:41;10.23;;;7.45;;
37355;SDS011;48747;50.250;18.848;2023-06-24T07:12:46;11.30;;;7.85;;
37355;SDS011;48747;50.250;18.848;2023-06-24T07:14:50;13.48;;;7.50;;
37355;SDS011;48747;50.250;18.848;2023-06-24T07:16:56;9.83;;;7.20;;
37355;SDS011;48747;50.250;18.848;2023-06-24T07:19:01;10.40;;;6.85;;
37355;SDS011;48747;50.250;18.848;2023-06-24T07:21:04;13.28;;;7.85;;
37355;SDS011;48747;50.250;18.848;2023-06-24T07:23:07;15.35;;;8.28;;
37355;SDS011;48747;50.250;18.848;2023-06-24T07:25:11;10.53;;;7.22;;
37355;SDS011;48747;50.250;18.848;2023-06-24T07:27:15;11.00;;;7.53;;
37355;SDS011;48747;50.250;18.848;2023-06-24T07:29:18;10.82;;;7.70;;
37355;SDS011;48747;50.250;18.848;2023-06-24T07:31:21;11.00;;;7.55;;
37355;SDS011;48747;50.250;18.848;2023-06-24T07:33:24;15.13;;;8.65;;
37355;SDS011;48747;50.250;18.848;2023-06-24T07:35:27;12.33;;;7.30;;
37355;SDS011;48747;50.250;18.848;2023-06-24T07:37:30;12.25;;;7.58;;
37355;SDS011;48747;50.250;18.848;2023-06-24T07:39:33;11.25;;;7.08;;
37355;SDS011;48747;50.250;18.848;2023-06-24T07:41:38;10.30;;;7.50;;
37355;SDS011;48747;50.250;18.848;2023-06-24T07:43:41;13.08;;;7.60;;
37355;SDS011;48747;50.250;18.848;2023-06-24T07:45:44;12.25;;;8.03;;
37355;SDS011;48747;50.250;18.848;2023-06-24T07:47:47;11.45;;;7.45;;
37355;SDS011;48747;50.250;18.848;2023-06-24T07:49:51;12.47;;;8.13;;
37355;SDS011;48747;50.250;18.848;2023-06-24T07:51:54;12.28;;;8.03;;
37355;SDS011;48747;50.250;18.848;2023-06-24T07:53:57;11.97;;;8.10;;
37355;SDS011;48747;50.250;18.848;2023-06-24T07:56:00;10.72;;;8.25;;
37355;SDS011;48747;50.250;18.848;2023-06-24T07:58:03;11.40;;;7.75;;
37355;SDS011;48747;50.250;18.848;2023-06-24T08:00:06;13.45;;;8.23;;
37355;SDS011;48747;50.250;18.848;2023-06-24T08:02:12;11.75;;;8.68;;
37355;SDS011;48747;50.250;18.848;2023-06-24T08:04:16;10.38;;;8.28;;
37355;SDS011;48747;50.250;18.848;2023-06-24T08:06:19;10.93;;;8.55;;
37355;SDS011;48747;50.250;18.848;2023-06-24T08:08:22;13.28;;;8.25;;
37355;SDS011;48747;50.250;18.848;2023-06-24T08:10:25;13.08;;;9.30;;
37355;SDS011;48747;50.250;18.848;2023-06-24T08:12:28;10.78;;;8.43;;
37355;SDS011;48747;50.250;18.848;2023-06-24T08:14:33;11.10;;;8.80;;
37355;SDS011;48747;50.250;18.848;2023-06-24T08:16:36;14.58;;;8.40;;
37355;SDS011;48747;50.250;18.848;2023-06-24T08:18:39;13.15;;;8.50;;
37355;SDS011;48747;50.250;18.848;2023-06-24T08:20:43;11.90;;;8.75;;
37355;SDS011;48747;50.250;18.848;2023-06-24T08:22:46;11.12;;;7.97;;
37355;SDS011;48747;50.250;18.848;2023-06-24T08:24:49;11.48;;;8.18;;
37355;SDS011;48747;50.250;18.848;2023-06-24T08:26:53;13.00;;;8.20;;
37355;SDS011;48747;50.250;18.848;2023-06-24T08:28:56;12.18;;;8.48;;
37355;SDS011;48747;50.250;18.848;2023-06-24T08:31:01;11.20;;;8.30;;
37355;SDS011;48747;50.250;18.848;2023-06-24T08:33:04;17.48;;;8.13;;
37355;SDS011;48747;50.250;18.848;2023-06-24T08:35:08;8.68;;;7.25;;
37355;SDS011;48747;50.250;18.848;2023-06-24T08:37:11;13.58;;;7.47;;
37355;SDS011;48747;50.250;18.848;2023-06-24T08:39:14;8.15;;;6.40;;
37355;SDS011;48747;50.250;18.848;2023-06-24T08:41:19;8.98;;;6.72;;
37355;SDS011;48747;50.250;18.848;2023-06-24T08:43:22;9.65;;;6.87;;
37355;SDS011;48747;50.250;18.848;2023-06-24T08:45:25;11.40;;;7.03;;
37355;SDS011;48747;50.250;18.848;2023-06-24T08:47:28;10.93;;;6.60;;
37355;SDS011;48747;50.250;18.848;2023-06-24T08:49:33;9.15;;;6.12;;
37355;SDS011;48747;50.250;18.848;2023-06-24T08:51:39;8.78;;;6.53;;
37355;SDS011;48747;50.250;18.848;2023-06-24T08:53:45;13.55;;;6.50;;
37355;SDS011;48747;50.250;18.848;2023-06-24T08:55:50;11.33;;;6.20;;
37355;SDS011;48747;50.250;18.848;2023-06-24T08:57:55;10.13;;;6.50;;
37355;SDS011;48747;50.250;18.848;2023-06-24T09:00:01;8.15;;;5.58;;
37355;SDS011;48747;50.250;18.848;2023-06-24T09:02:10;11.50;;;6.15;;
37355;SDS011;48747;50.250;18.848;2023-06-24T09:04:15;11.18;;;6.40;;
37355;SDS011;48747;50.250;18.848;2023-06-24T09:08:25;9.98;;;5.92;;
37355;SDS011;48747;50.250;18.848;2023-06-24T09:10:34;8.45;;;5.78;;
37355;SDS011;48747;50.250;18.848;2023-06-24T09:12:38;8.40;;;5.87;;
37355;SDS011;48747;50.250;18.848;2023-06-24T09:14:47;8.60;;;5.70;;
37355;SDS011;48747;50.250;18.848;2023-06-24T09:16:56;10.03;;;5.90;;
37355;SDS011;48747;50.250;18.848;2023-06-24T09:21:23;11.10;;;7.07;;
37355;SDS011;48747;50.250;18.848;2023-06-24T09:23:28;12.43;;;7.05;;
37355;SDS011;48747;50.250;18.848;2023-06-24T09:25:32;9.58;;;7.08;;
37355;SDS011;48747;50.250;18.848;2023-06-24T09:30:16;10.88;;;8.08;;
37355;SDS011;48747;50.250;18.848;2023-06-24T09:32:09;7.95;;;7.15;;
37355;SDS011;48747;50.250;18.848;2023-06-24T09:34:20;8.65;;;6.78;;
37355;SDS011;48747;50.250;18.848;2023-06-24T09:36:31;11.05;;;7.17;;
37355;SDS011;48747;50.250;18.848;2023-06-24T09:38:35;9.97;;;7.37;;
37355;SDS011;48747;50.250;18.848;2023-06-24T09:40:45;13.03;;;8.35;;
37355;SDS011;48747;50.250;18.848;2023-06-24T09:42:59;12.65;;;7.70;;
37355;SDS011;48747;50.250;18.848;2023-06-24T09:45:08;10.78;;;8.23;;
37355;SDS011;48747;50.250;18.848;2023-06-24T09:47:11;10.00;;;7.75;;
37355;SDS011;48747;50.250;18.848;2023-06-24T09:49:17;10.98;;;7.83;;
37355;SDS011;48747;50.250;18.848;2023-06-24T09:51:28;11.38;;;8.23;;
37355;SDS011;48747;50.250;18.848;2023-06-24T09:53:32;11.95;;;8.38;;
37355;SDS011;48747;50.250;18.848;2023-06-24T09:55:41;10.63;;;8.13;;
37355;SDS011;48747;50.250;18.848;2023-06-24T09:57:46;11.57;;;8.73;;
37355;SDS011;48747;50.250;18.848;2023-06-24T09:59:51;10.85;;;8.00;;
37355;SDS011;48747;50.250;18.848;2023-06-24T10:01:54;9.65;;;8.18;;
37355;SDS011;48747;50.250;18.848;2023-06-24T10:03:59;9.53;;;7.85;;
37355;SDS011;48747;50.250;18.848;2023-06-24T10:06:07;10.88;;;7.53;;
37355;SDS011;48747;50.250;18.848;2023-06-24T10:08:16;11.90;;;7.65;;
37355;SDS011;48747;50.250;18.848;2023-06-24T10:10:16;12.55;;;10.23;;
37355;SDS011;48747;50.250;18.848;2023-06-24T10:12:23;11.68;;;8.88;;
37355;SDS011;48747;50.250;18.848;2023-06-24T10:14:28;13.53;;;11.08;;
37355;SDS011;48747;50.250;18.848;2023-06-24T10:16:32;13.35;;;10.30;;
37355;SDS011;48747;50.250;18.848;2023-06-24T10:18:39;13.32;;;10.20;;
37355;SDS011;48747;50.250;18.848;2023-06-24T10:20:42;10.63;;;8.35;;
37355;SDS011;48747;50.250;18.848;2023-06-24T10:22:48;13.80;;;7.80;;
37355;SDS011;48747;50.250;18.848;2023-06-24T10:24:54;9.45;;;7.20;;
37355;SDS011;48747;50.250;18.848;2023-06-24T10:29:08;11.43;;;7.42;;
37355;SDS011;48747;50.250;18.848;2023-06-24T10:31:11;9.25;;;7.28;;
37355;SDS011;48747;50.250;18.848;2023-06-24T10:33:14;12.23;;;7.05;;
37355;SDS011;48747;50.250;18.848;2023-06-24T10:35:22;8.88;;;6.65;;
37355;SDS011;48747;50.250;18.848;2023-06-24T10:37:30;10.93;;;6.45;;
37355;SDS011;48747;50.250;18.848;2023-06-24T10:41:54;10.72;;;6.83;;
37355;SDS011;48747;50.250;18.848;2023-06-24T10:43:57;10.68;;;6.67;;
37355;SDS011;48747;50.250;18.848;2023-06-24T10:46:07;10.03;;;7.28;;
37355;SDS011;48747;50.250;18.848;2023-06-24T10:48:08;12.25;;;7.58;;
37355;SDS011;48747;50.250;18.848;2023-06-24T10:50:12;10.28;;;6.97;;
37355;SDS011;48747;50.250;18.848;2023-06-24T10:52:18;10.93;;;7.65;;
37355;SDS011;48747;50.250;18.848;2023-06-24T10:54:26;12.10;;;7.20;;
37355;SDS011;48747;50.250;18.848;2023-06-24T10:56:31;9.83;;;7.45;;
37355;SDS011;48747;50.250;18.848;2023-06-24T10:58:36;12.37;;;6.80;;
37355;SDS011;48747;50.250;18.848;2023-06-24T11:00:41;9.43;;;6.78;;
37355;SDS011;48747;50.250;18.848;2023-06-24T11:02:48;14.15;;;6.95;;
37355;SDS011;48747;50.250;18.848;2023-06-24T11:04:51;10.00;;;7.30;;
37355;SDS011;48747;50.250;18.848;2023-06-24T11:06:59;9.88;;;7.10;;
37355;SDS011;48747;50.250;18.848;2023-06-24T11:09:08;9.93;;;7.00;;
37355;SDS011;48747;50.250;18.848;2023-06-24T11:11:08;13.03;;;7.25;;
37355;SDS011;48747;50.250;18.848;2023-06-24T11:15:52;11.15;;;7.33;;
37355;SDS011;48747;50.250;18.848;2023-06-24T11:18:01;11.53;;;7.85;;
37355;SDS011;48747;50.250;18.848;2023-06-24T11:20:07;11.75;;;7.47;;
37355;SDS011;48747;50.250;18.848;2023-06-24T11:22:11;12.65;;;7.47;;
37355;SDS011;48747;50.250;18.848;2023-06-24T11:24:15;12.03;;;7.30;;
37355;SDS011;48747;50.250;18.848;2023-06-24T11:26:18;10.23;;;7.67;;
37355;SDS011;48747;50.250;18.848;2023-06-24T11:28:21;10.78;;;8.68;;
37355;SDS011;48747;50.250;18.848;2023-06-24T11:30:25;11.80;;;7.28;;
37355;SDS011;48747;50.250;18.848;2023-06-24T11:32:36;9.58;;;6.87;;
37355;SDS011;48747;50.250;18.848;2023-06-24T11:34:46;13.18;;;7.00;;
37355;SDS011;48747;50.250;18.848;2023-06-24T11:36:45;10.93;;;7.58;;
37355;SDS011;48747;50.250;18.848;2023-06-24T11:38:49;9.73;;;7.85;;
37355;SDS011;48747;50.250;18.848;2023-06-24T11:40:52;11.35;;;7.20;;
37355;SDS011;48747;50.250;18.848;2023-06-24T11:43:00;11.73;;;7.58;;
37355;SDS011;48747;50.250;18.848;2023-06-24T11:45:04;10.10;;;6.95;;
37355;SDS011;48747;50.250;18.848;2023-06-24T11:47:11;11.88;;;6.70;;
37355;SDS011;48747;50.250;18.848;2023-06-24T11:49:14;8.13;;;6.78;;
37355;SDS011;48747;50.250;18.848;2023-06-24T11:51:19;10.28;;;6.83;;
37355;SDS011;48747;50.250;18.848;2023-06-24T11:53:30;12.58;;;6.97;;
37355;SDS011;48747;50.250;18.848;2023-06-24T11:55:34;9.55;;;7.00;;
37355;SDS011;48747;50.250;18.848;2023-06-24T11:59:57;8.85;;;5.97;;
37355;SDS011;48747;50.250;18.848;2023-06-24T12:02:02;9.18;;;5.80;;
37355;SDS011;48747;50.250;18.848;2023-06-24T12:04:11;9.05;;;6.20;;
37355;SDS011;48747;50.250;18.848;2023-06-24T12:06:16;8.63;;;6.30;;
37355;SDS011;48747;50.250;18.848;2023-06-24T12:08:21;8.55;;;6.22;;
37355;SDS011;48747;50.250;18.848;2023-06-24T12:10:24;7.62;;;5.97;;
37355;SDS011;48747;50.250;18.848;2023-06-24T12:12:28;9.33;;;6.78;;
37355;SDS011;48747;50.250;18.848;2023-06-24T12:14:37;11.83;;;7.25;;
37355;SDS011;48747;50.250;18.848;2023-06-24T12:16:39;9.65;;;6.85;;
37355;SDS011;48747;50.250;18.848;2023-06-24T12:18:44;9.93;;;6.33;;
37355;SDS011;48747;50.250;18.848;2023-06-24T12:20:53;7.72;;;6.22;;
37355;SDS011;48747;50.250;18.848;2023-06-24T12:22:53;8.73;;;6.17;;
37355;SDS011;48747;50.250;18.848;2023-06-24T12:24:57;10.53;;;6.15;;
37355;SDS011;48747;50.250;18.848;2023-06-24T12:27:00;9.55;;;5.83;;
37355;SDS011;48747;50.250;18.848;2023-06-24T12:29:03;7.60;;;5.75;;
37355;SDS011;48747;50.250;18.848;2023-06-24T12:31:09;10.38;;;5.92;;
37355;SDS011;48747;50.250;18.848;2023-06-24T12:33:13;11.10;;;6.30;;
37355;SDS011;48747;50.250;18.848;2023-06-24T12:35:18;8.85;;;5.65;;
37355;SDS011;48747;50.250;18.848;2023-06-24T12:37:28;8.83;;;6.08;;
37355;SDS011;48747;50.250;18.848;2023-06-24T12:39:44;7.40;;;5.20;;